sensor_id;sensor_type;location;lat;lon;timestamp;temperature;humidity
54680;DHT22;40578;53.178;5.846;2024-03-25T00:02:00;6.00;99.90
54680;DHT22;40578;53.178;5.846;2024-03-25T00:04:25;6.00;99.90
54680;DHT22;40578;53.178;5.846;2024-03-25T00:06:51;6.00;99.90
54680;DHT22;40578;53.178;5.846;2024-03-25T00:09:17;5.90;99.90
54680;DHT22;40578;53.178;5.846;2024-03-25T00:11:43;5.90;99.90
54680;DHT22;40578;53.178;5.846;2024-03-25T00:14:09;5.80;99.90
54680;DHT22;40578;53.178;5.846;2024-03-25T00:16:35;5.80;99.90
54680;DHT22;40578;53.178;5.846;2024-03-25T00:19:01;5.80;99.90
54680;DHT22;40578;53.178;5.846;2024-03-25T00:21:27;5.80;99.90
54680;DHT22;40578;53.178;5.846;2024-03-25T00:23:53;5.80;99.90
54680;DHT22;40578;53.178;5.846;2024-03-25T00:26:22;5.80;99.90
54680;DHT22;40578;53.178;5.846;2024-03-25T00:28:47;5.70;99.90
54680;DHT22;40578;53.178;5.846;2024-03-25T00:31:13;5.70;99.90
54680;DHT22;40578;53.178;5.846;2024-03-25T00:33:39;5.70;99.90
54680;DHT22;40578;53.178;5.846;2024-03-25T00:36:05;5.70;99.90
54680;DHT22;40578;53.178;5.846;2024-03-25T00:38:30;5.60;99.90
54680;DHT22;40578;53.178;5.846;2024-03-25T00:40:56;5.60;99.90
54680;DHT22;40578;53.178;5.846;2024-03-25T00:43:21;5.60;99.90
54680;DHT22;40578;53.178;5.846;2024-03-25T00:45:47;5.60;99.90
54680;DHT22;40578;53.178;5.846;2024-03-25T00:48:12;5.60;99.90
54680;DHT22;40578;53.178;5.846;2024-03-25T00:50:38;5.60;99.90
54680;DHT22;40578;53.178;5.846;2024-03-25T00:53:04;5.70;99.90
54680;DHT22;40578;53.178;5.846;2024-03-25T00:55:29;5.70;99.90
54680;DHT22;40578;53.178;5.846;2024-03-25T00:57:55;5.70;99.90
54680;DHT22;40578;53.178;5.846;2024-03-25T01:00:21;5.60;99.90
54680;DHT22;40578;53.178;5.846;2024-03-25T01:02:46;5.60;99.90
54680;DHT22;40578;53.178;5.846;2024-03-25T01:05:12;5.50;99.90
54680;DHT22;40578;53.178;5.846;2024-03-25T01:07:38;5.50;99.90
54680;DHT22;40578;53.178;5.846;2024-03-25T01:10:04;5.50;99.90
54680;DHT22;40578;53.178;5.846;2024-03-25T01:12:31;5.50;99.90
54680;DHT22;40578;53.178;5.846;2024-03-25T01:14:57;5.50;99.90
54680;DHT22;40578;53.178;5.846;2024-03-25T01:17:22;5.40;99.90
54680;DHT22;40578;53.178;5.846;2024-03-25T01:19:48;5.40;99.90
54680;DHT22;40578;53.178;5.846;2024-03-25T01:22:14;5.40;99.90
54680;DHT22;40578;53.178;5.846;2024-03-25T01:24:39;5.40;99.90
54680;DHT22;40578;53.178;5.846;2024-03-25T01:27:05;5.40;99.90
54680;DHT22;40578;53.178;5.846;2024-03-25T01:29:31;5.50;99.90
54680;DHT22;40578;53.178;5.846;2024-03-25T01:31:58;5.50;99.90
54680;DHT22;40578;53.178;5.846;2024-03-25T01:34:27;5.60;99.90
54680;DHT22;40578;53.178;5.846;2024-03-25T01:36:53;5.50;99.90
54680;DHT22;40578;53.178;5.846;2024-03-25T01:39:19;5.60;99.90
54680;DHT22;40578;53.178;5.846;2024-03-25T01:41:44;5.60;99.90
54680;DHT22;40578;53.178;5.846;2024-03-25T01:44:10;5.50;99.90
54680;DHT22;40578;53.178;5.846;2024-03-25T01:46:36;5.50;99.90
54680;DHT22;40578;53.178;5.846;2024-03-25T01:49:03;5.50;99.90
54680;DHT22;40578;53.178;5.846;2024-03-25T01:51:29;5.50;99.90
54680;DHT22;40578;53.178;5.846;2024-03-25T01:53:55;5.40;99.90
54680;DHT22;40578;53.178;5.846;2024-03-25T01:56:23;5.40;99.90
54680;DHT22;40578;53.178;5.846;2024-03-25T01:58:50;5.40;99.90
54680;DHT22;40578;53.178;5.846;2024-03-25T02:01:16;5.50;99.90
54680;DHT22;40578;53.178;5.846;2024-03-25T02:03:42;5.40;99.90
54680;DHT22;40578;53.178;5.846;2024-03-25T02:06:13;5.40;99.90
54680;DHT22;40578;53.178;5.846;2024-03-25T02:08:40;5.40;99.90
54680;DHT22;40578;53.178;5.846;2024-03-25T02:11:07;5.60;99.90
54680;DHT22;40578;53.178;5.846;2024-03-25T02:13:33;5.40;99.90
54680;DHT22;40578;53.178;5.846;2024-03-25T02:16:00;5.40;99.90
54680;DHT22;40578;53.178;5.846;2024-03-25T02:18:26;5.40;99.90
54680;DHT22;40578;53.178;5.846;2024-03-25T02:20:51;5.40;99.90
54680;DHT22;40578;53.178;5.846;2024-03-25T02:23:18;5.40;99.90
54680;DHT22;40578;53.178;5.846;2024-03-25T02:25:49;6.20;99.90
54680;DHT22;40578;53.178;5.846;2024-03-25T02:28:14;5.40;99.90
54680;DHT22;40578;53.178;5.846;2024-03-25T02:30:40;5.50;99.90
54680;DHT22;40578;53.178;5.846;2024-03-25T02:33:06;5.50;99.90
54680;DHT22;40578;53.178;5.846;2024-03-25T02:35:31;5.40;99.90
54680;DHT22;40578;53.178;5.846;2024-03-25T02:37:57;5.50;99.90
54680;DHT22;40578;53.178;5.846;2024-03-25T02:40:23;5.50;99.90
54680;DHT22;40578;53.178;5.846;2024-03-25T02:42:49;5.50;99.90
54680;DHT22;40578;53.178;5.846;2024-03-25T02:45:15;5.50;99.90
54680;DHT22;40578;53.178;5.846;2024-03-25T02:47:43;5.50;99.90
54680;DHT22;40578;53.178;5.846;2024-03-25T02:50:09;5.50;99.90
54680;DHT22;40578;53.178;5.846;2024-03-25T02:52:35;5.50;99.90
54680;DHT22;40578;53.178;5.846;2024-03-25T02:55:00;5.60;99.90
54680;DHT22;40578;53.178;5.846;2024-03-25T02:57:26;5.50;99.90
54680;DHT22;40578;53.178;5.846;2024-03-25T02:59:52;5.50;99.90
54680;DHT22;40578;53.178;5.846;2024-03-25T03:02:17;5.50;99.90
54680;DHT22;40578;53.178;5.846;2024-03-25T03:04:43;5.50;99.90
54680;DHT22;40578;53.178;5.846;2024-03-25T03:07:08;5.50;99.90
54680;DHT22;40578;53.178;5.846;2024-03-25T03:09:35;5.40;99.90
54680;DHT22;40578;53.178;5.846;2024-03-25T03:12:01;5.40;99.90
54680;DHT22;40578;53.178;5.846;2024-03-25T03:14:27;5.40;99.90
54680;DHT22;40578;53.178;5.846;2024-03-25T03:16:52;5.30;99.90
54680;DHT22;40578;53.178;5.846;2024-03-25T03:19:21;5.40;99.90
54680;DHT22;40578;53.178;5.846;2024-03-25T03:21:46;5.30;99.90
54680;DHT22;40578;53.178;5.846;2024-03-25T03:24:12;5.40;99.90
54680;DHT22;40578;53.178;5.846;2024-03-25T03:26:38;5.40;99.90
54680;DHT22;40578;53.178;5.846;2024-03-25T03:29:04;5.30;99.90
54680;DHT22;40578;53.178;5.846;2024-03-25T03:31:29;5.30;99.90
54680;DHT22;40578;53.178;5.846;2024-03-25T03:33:55;5.30;99.90
54680;DHT22;40578;53.178;5.846;2024-03-25T03:36:23;5.20;99.90
54680;DHT22;40578;53.178;5.846;2024-03-25T03:38:51;5.10;99.90
54680;DHT22;40578;53.178;5.846;2024-03-25T03:41:17;5.10;99.90
54680;DHT22;40578;53.178;5.846;2024-03-25T03:43:43;5.00;99.90
54680;DHT22;40578;53.178;5.846;2024-03-25T03:46:08;5.00;99.90
54680;DHT22;40578;53.178;5.846;2024-03-25T03:48:34;5.00;99.90
54680;DHT22;40578;53.178;5.846;2024-03-25T03:51:01;4.90;99.90
54680;DHT22;40578;53.178;5.846;2024-03-25T03:53:26;5.00;99.90
54680;DHT22;40578;53.178;5.846;2024-03-25T03:55:56;4.90;99.90
54680;DHT22;40578;53.178;5.846;2024-03-25T03:58:23;4.80;99.90
54680;DHT22;40578;53.178;5.846;2024-03-25T04:00:48;4.80;99.90
54680;DHT22;40578;53.178;5.846;2024-03-25T04:03:14;4.80;99.90
54680;DHT22;40578;53.178;5.846;2024-03-25T04:05:40;4.80;99.90
54680;DHT22;40578;53.178;5.846;2024-03-25T04:08:06;4.80;99.90
54680;DHT22;40578;53.178;5.846;2024-03-25T04:10:32;5.00;99.90
54680;DHT22;40578;53.178;5.846;2024-03-25T04:12:57;4.90;99.90
54680;DHT22;40578;53.178;5.846;2024-03-25T04:15:23;4.90;99.90
54680;DHT22;40578;53.178;5.846;2024-03-25T04:17:49;5.00;99.90
54680;DHT22;40578;53.178;5.846;2024-03-25T04:20:15;4.90;99.90
54680;DHT22;40578;53.178;5.846;2024-03-25T04:22:42;4.80;99.90
54680;DHT22;40578;53.178;5.846;2024-03-25T04:25:08;4.80;99.90
54680;DHT22;40578;53.178;5.846;2024-03-25T04:27:39;4.70;99.90
54680;DHT22;40578;53.178;5.846;2024-03-25T04:30:06;4.60;99.90
54680;DHT22;40578;53.178;5.846;2024-03-25T04:32:32;4.60;99.90
54680;DHT22;40578;53.178;5.846;2024-03-25T04:34:58;4.50;99.90
54680;DHT22;40578;53.178;5.846;2024-03-25T04:37:24;4.40;99.90
54680;DHT22;40578;53.178;5.846;2024-03-25T04:39:49;4.40;99.90
54680;DHT22;40578;53.178;5.846;2024-03-25T04:42:15;4.40;99.90
54680;DHT22;40578;53.178;5.846;2024-03-25T04:44:41;4.50;99.90
54680;DHT22;40578;53.178;5.846;2024-03-25T04:47:06;4.40;99.90
54680;DHT22;40578;53.178;5.846;2024-03-25T04:49:32;4.40;99.90
54680;DHT22;40578;53.178;5.846;2024-03-25T04:51:57;4.40;99.90
54680;DHT22;40578;53.178;5.846;2024-03-25T04:54:23;4.50;99.90
54680;DHT22;40578;53.178;5.846;2024-03-25T04:56:48;4.50;99.90
54680;DHT22;40578;53.178;5.846;2024-03-25T04:59:14;4.60;99.90
54680;DHT22;40578;53.178;5.846;2024-03-25T05:01:40;4.60;99.90
54680;DHT22;40578;53.178;5.846;2024-03-25T05:04:05;4.70;99.90
54680;DHT22;40578;53.178;5.846;2024-03-25T05:06:35;4.70;99.90
54680;DHT22;40578;53.178;5.846;2024-03-25T05:09:00;4.60;99.90
54680;DHT22;40578;53.178;5.846;2024-03-25T05:11:26;4.60;99.90
54680;DHT22;40578;53.178;5.846;2024-03-25T05:13:52;4.50;99.90
54680;DHT22;40578;53.178;5.846;2024-03-25T05:16:17;4.60;99.90
54680;DHT22;40578;53.178;5.846;2024-03-25T05:18:43;4.40;99.90
54680;DHT22;40578;53.178;5.846;2024-03-25T05:21:08;4.40;99.90
54680;DHT22;40578;53.178;5.846;2024-03-25T05:23:34;4.40;99.90
54680;DHT22;40578;53.178;5.846;2024-03-25T05:25:59;4.50;99.90
54680;DHT22;40578;53.178;5.846;2024-03-25T05:28:25;4.60;99.90
54680;DHT22;40578;53.178;5.846;2024-03-25T05:30:51;4.60;99.90
54680;DHT22;40578;53.178;5.846;2024-03-25T05:33:17;4.50;99.90
54680;DHT22;40578;53.178;5.846;2024-03-25T05:35:42;4.80;99.90
54680;DHT22;40578;53.178;5.846;2024-03-25T05:38:08;4.40;99.90
54680;DHT22;40578;53.178;5.846;2024-03-25T05:40:33;4.50;99.90
54680;DHT22;40578;53.178;5.846;2024-03-25T05:42:59;4.40;99.90
54680;DHT22;40578;53.178;5.846;2024-03-25T05:45:25;4.40;99.90
54680;DHT22;40578;53.178;5.846;2024-03-25T05:47:51;4.30;99.90
54680;DHT22;40578;53.178;5.846;2024-03-25T05:50:16;4.20;99.90
54680;DHT22;40578;53.178;5.846;2024-03-25T05:52:42;4.20;99.90
54680;DHT22;40578;53.178;5.846;2024-03-25T05:55:08;4.30;99.90
54680;DHT22;40578;53.178;5.846;2024-03-25T05:57:36;4.20;99.90
54680;DHT22;40578;53.178;5.846;2024-03-25T06:00:03;4.20;99.90
54680;DHT22;40578;53.178;5.846;2024-03-25T06:02:28;4.20;99.90
54680;DHT22;40578;53.178;5.846;2024-03-25T06:04:55;4.10;99.90
54680;DHT22;40578;53.178;5.846;2024-03-25T06:07:22;4.20;99.90
54680;DHT22;40578;53.178;5.846;2024-03-25T06:09:47;4.20;99.90
54680;DHT22;40578;53.178;5.846;2024-03-25T06:12:13;4.20;99.90
54680;DHT22;40578;53.178;5.846;2024-03-25T06:14:39;4.30;99.90
54680;DHT22;40578;53.178;5.846;2024-03-25T06:17:04;4.10;99.90
54680;DHT22;40578;53.178;5.846;2024-03-25T06:19:30;4.10;99.90
54680;DHT22;40578;53.178;5.846;2024-03-25T06:21:55;4.20;99.90
54680;DHT22;40578;53.178;5.846;2024-03-25T06:24:21;4.30;99.90
54680;DHT22;40578;53.178;5.846;2024-03-25T06:26:46;4.30;99.90
54680;DHT22;40578;53.178;5.846;2024-03-25T06:29:12;4.30;99.90
54680;DHT22;40578;53.178;5.846;2024-03-25T06:31:38;4.40;99.90
54680;DHT22;40578;53.178;5.846;2024-03-25T06:34:21;4.40;99.90
54680;DHT22;40578;53.178;5.846;2024-03-25T06:36:51;4.50;99.90
54680;DHT22;40578;53.178;5.846;2024-03-25T06:39:17;4.50;99.90
54680;DHT22;40578;53.178;5.846;2024-03-25T06:41:43;4.60;99.90
54680;DHT22;40578;53.178;5.846;2024-03-25T06:44:09;4.50;99.90
54680;DHT22;40578;53.178;5.846;2024-03-25T06:46:35;4.70;99.90
54680;DHT22;40578;53.178;5.846;2024-03-25T06:49:00;4.60;99.90
54680;DHT22;40578;53.178;5.846;2024-03-25T06:51:26;4.70;99.90
54680;DHT22;40578;53.178;5.846;2024-03-25T06:53:52;6.00;99.90
54680;DHT22;40578;53.178;5.846;2024-03-25T06:56:18;5.00;99.90
54680;DHT22;40578;53.178;5.846;2024-03-25T06:58:43;5.10;99.90
54680;DHT22;40578;53.178;5.846;2024-03-25T07:01:10;5.20;99.90
54680;DHT22;40578;53.178;5.846;2024-03-25T07:03:38;5.20;99.90
54680;DHT22;40578;53.178;5.846;2024-03-25T07:06:03;5.20;99.90
54680;DHT22;40578;53.178;5.846;2024-03-25T07:08:29;5.30;99.90
54680;DHT22;40578;53.178;5.846;2024-03-25T07:10:56;5.20;99.90
54680;DHT22;40578;53.178;5.846;2024-03-25T07:13:22;5.30;99.90
54680;DHT22;40578;53.178;5.846;2024-03-25T07:15:48;5.30;99.90
54680;DHT22;40578;53.178;5.846;2024-03-25T07:18:13;5.50;99.90
54680;DHT22;40578;53.178;5.846;2024-03-25T07:20:40;5.60;99.90
54680;DHT22;40578;53.178;5.846;2024-03-25T07:23:05;5.60;99.90
54680;DHT22;40578;53.178;5.846;2024-03-25T07:25:31;5.70;99.90
54680;DHT22;40578;53.178;5.846;2024-03-25T07:27:57;5.80;99.90
54680;DHT22;40578;53.178;5.846;2024-03-25T07:30:23;5.90;99.90
54680;DHT22;40578;53.178;5.846;2024-03-25T07:32:53;5.80;99.90
54680;DHT22;40578;53.178;5.846;2024-03-25T07:35:19;6.00;99.90
54680;DHT22;40578;53.178;5.846;2024-03-25T07:37:44;5.90;99.90
54680;DHT22;40578;53.178;5.846;2024-03-25T07:40:10;5.90;99.90
54680;DHT22;40578;53.178;5.846;2024-03-25T07:42:39;5.90;99.90
54680;DHT22;40578;53.178;5.846;2024-03-25T07:45:05;5.90;99.90
54680;DHT22;40578;53.178;5.846;2024-03-25T07:47:32;5.90;99.90
54680;DHT22;40578;53.178;5.846;2024-03-25T07:49:58;6.00;99.90
54680;DHT22;40578;53.178;5.846;2024-03-25T07:52:25;6.00;99.90
54680;DHT22;40578;53.178;5.846;2024-03-25T07:54:50;6.00;99.90
54680;DHT22;40578;53.178;5.846;2024-03-25T07:57:17;7.20;99.90
54680;DHT22;40578;53.178;5.846;2024-03-25T07:59:42;6.10;99.90
54680;DHT22;40578;53.178;5.846;2024-03-25T08:02:08;6.10;99.90
54680;DHT22;40578;53.178;5.846;2024-03-25T08:04:33;6.10;99.90
54680;DHT22;40578;53.178;5.846;2024-03-25T08:06:59;6.10;99.90
54680;DHT22;40578;53.178;5.846;2024-03-25T08:09:24;6.20;99.90
54680;DHT22;40578;53.178;5.846;2024-03-25T08:11:50;6.20;99.90
54680;DHT22;40578;53.178;5.846;2024-03-25T08:14:15;6.30;99.90
54680;DHT22;40578;53.178;5.846;2024-03-25T08:16:41;6.40;99.90
54680;DHT22;40578;53.178;5.846;2024-03-25T08:19:07;6.40;99.90
54680;DHT22;40578;53.178;5.846;2024-03-25T08:21:32;6.40;99.90
54680;DHT22;40578;53.178;5.846;2024-03-25T08:23:58;6.40;99.90
54680;DHT22;40578;53.178;5.846;2024-03-25T08:26:23;6.50;99.90
54680;DHT22;40578;53.178;5.846;2024-03-25T08:28:49;6.50;99.90
54680;DHT22;40578;53.178;5.846;2024-03-25T08:31:15;6.70;99.90
54680;DHT22;40578;53.178;5.846;2024-03-25T08:33:41;6.80;99.90
54680;DHT22;40578;53.178;5.846;2024-03-25T08:36:07;7.10;99.90
54680;DHT22;40578;53.178;5.846;2024-03-25T08:38:33;7.00;99.90
54680;DHT22;40578;53.178;5.846;2024-03-25T08:40:59;7.10;99.90
54680;DHT22;40578;53.178;5.846;2024-03-25T08:43:24;7.20;99.90
54680;DHT22;40578;53.178;5.846;2024-03-25T08:45:50;7.20;99.90
54680;DHT22;40578;53.178;5.846;2024-03-25T08:48:15;7.30;99.90
54680;DHT22;40578;53.178;5.846;2024-03-25T08:50:41;7.40;99.90
54680;DHT22;40578;53.178;5.846;2024-03-25T08:53:07;7.50;99.90
54680;DHT22;40578;53.178;5.846;2024-03-25T08:55:33;7.60;99.90
54680;DHT22;40578;53.178;5.846;2024-03-25T08:57:59;7.80;99.90
54680;DHT22;40578;53.178;5.846;2024-03-25T09:00:28;7.90;99.90
54680;DHT22;40578;53.178;5.846;2024-03-25T09:02:54;8.00;99.90
54680;DHT22;40578;53.178;5.846;2024-03-25T09:05:20;7.70;99.90
54680;DHT22;40578;53.178;5.846;2024-03-25T09:07:48;7.70;99.90
54680;DHT22;40578;53.178;5.846;2024-03-25T09:10:16;7.60;99.90
54680;DHT22;40578;53.178;5.846;2024-03-25T09:13:01;7.50;99.90
54680;DHT22;40578;53.178;5.846;2024-03-25T09:15:26;7.70;99.90
54680;DHT22;40578;53.178;5.846;2024-03-25T09:17:52;7.20;99.90
54680;DHT22;40578;53.178;5.846;2024-03-25T09:20:17;7.20;99.90
54680;DHT22;40578;53.178;5.846;2024-03-25T09:22:43;7.10;99.90
54680;DHT22;40578;53.178;5.846;2024-03-25T09:25:09;7.20;99.90
54680;DHT22;40578;53.178;5.846;2024-03-25T09:27:35;7.30;99.90
54680;DHT22;40578;53.178;5.846;2024-03-25T09:30:01;7.40;99.90
54680;DHT22;40578;53.178;5.846;2024-03-25T09:32:29;7.60;99.90
54680;DHT22;40578;53.178;5.846;2024-03-25T09:34:59;7.60;99.90
54680;DHT22;40578;53.178;5.846;2024-03-25T09:37:24;7.60;99.90
54680;DHT22;40578;53.178;5.846;2024-03-25T09:39:50;7.60;99.90
54680;DHT22;40578;53.178;5.846;2024-03-25T09:42:22;7.50;99.90
54680;DHT22;40578;53.178;5.846;2024-03-25T09:44:52;7.60;99.90
54680;DHT22;40578;53.178;5.846;2024-03-25T09:47:18;7.70;99.90
54680;DHT22;40578;53.178;5.846;2024-03-25T09:49:45;7.70;99.90
54680;DHT22;40578;53.178;5.846;2024-03-25T09:52:12;7.80;99.90
54680;DHT22;40578;53.178;5.846;2024-03-25T09:54:37;8.10;99.90
54680;DHT22;40578;53.178;5.846;2024-03-25T09:57:03;8.10;99.90
54680;DHT22;40578;53.178;5.846;2024-03-25T09:59:30;8.20;99.90
54680;DHT22;40578;53.178;5.846;2024-03-25T10:01:56;8.10;99.90
54680;DHT22;40578;53.178;5.846;2024-03-25T10:04:23;8.10;99.90
54680;DHT22;40578;53.178;5.846;2024-03-25T10:06:49;8.10;99.90
54680;DHT22;40578;53.178;5.846;2024-03-25T10:09:19;8.10;99.90
54680;DHT22;40578;53.178;5.846;2024-03-25T10:11:49;8.00;99.90
54680;DHT22;40578;53.178;5.846;2024-03-25T10:14:16;8.00;99.90
54680;DHT22;40578;53.178;5.846;2024-03-25T10:16:42;8.10;99.90
54680;DHT22;40578;53.178;5.846;2024-03-25T10:19:08;8.20;99.90
54680;DHT22;40578;53.178;5.846;2024-03-25T10:21:35;8.30;99.90
54680;DHT22;40578;53.178;5.846;2024-03-25T10:24:00;8.40;99.90
54680;DHT22;40578;53.178;5.846;2024-03-25T10:26:32;8.50;99.90
54680;DHT22;40578;53.178;5.846;2024-03-25T10:29:07;8.60;99.90
54680;DHT22;40578;53.178;5.846;2024-03-25T10:31:33;8.70;99.90
54680;DHT22;40578;53.178;5.846;2024-03-25T10:33:59;8.50;99.90
54680;DHT22;40578;53.178;5.846;2024-03-25T10:36:26;8.50;99.90
54680;DHT22;40578;53.178;5.846;2024-03-25T10:38:55;8.40;99.90
54680;DHT22;40578;53.178;5.846;2024-03-25T10:41:21;8.40;99.90
54680;DHT22;40578;53.178;5.846;2024-03-25T10:43:48;8.30;99.90
54680;DHT22;40578;53.178;5.846;2024-03-25T10:46:22;8.40;99.90
54680;DHT22;40578;53.178;5.846;2024-03-25T10:48:58;8.40;99.90
54680;DHT22;40578;53.178;5.846;2024-03-25T10:51:26;8.40;99.90
54680;DHT22;40578;53.178;5.846;2024-03-25T10:53:53;8.50;99.90
54680;DHT22;40578;53.178;5.846;2024-03-25T10:56:23;8.60;99.90
54680;DHT22;40578;53.178;5.846;2024-03-25T10:58:49;8.70;99.90
54680;DHT22;40578;53.178;5.846;2024-03-25T11:01:19;8.80;99.90
54680;DHT22;40578;53.178;5.846;2024-03-25T11:03:45;9.00;99.90
54680;DHT22;40578;53.178;5.846;2024-03-25T11:06:11;8.90;99.90
54680;DHT22;40578;53.178;5.846;2024-03-25T11:08:37;9.10;99.90
54680;DHT22;40578;53.178;5.846;2024-03-25T11:11:05;9.30;99.90
54680;DHT22;40578;53.178;5.846;2024-03-25T11:13:31;9.40;99.90
54680;DHT22;40578;53.178;5.846;2024-03-25T11:15:58;9.30;99.90
54680;DHT22;40578;53.178;5.846;2024-03-25T11:18:25;9.10;99.90
54680;DHT22;40578;53.178;5.846;2024-03-25T11:21:04;9.10;99.90
54680;DHT22;40578;53.178;5.846;2024-03-25T11:23:38;9.00;99.90
54680;DHT22;40578;53.178;5.846;2024-03-25T11:26:04;9.30;99.90
54680;DHT22;40578;53.178;5.846;2024-03-25T11:28:30;9.40;99.90
54680;DHT22;40578;53.178;5.846;2024-03-25T11:30:56;9.50;99.90
54680;DHT22;40578;53.178;5.846;2024-03-25T11:33:22;9.40;99.90
54680;DHT22;40578;53.178;5.846;2024-03-25T11:35:49;9.50;99.90
54680;DHT22;40578;53.178;5.846;2024-03-25T11:38:15;9.40;99.90
54680;DHT22;40578;53.178;5.846;2024-03-25T11:40:44;9.40;99.90
54680;DHT22;40578;53.178;5.846;2024-03-25T11:43:17;9.40;99.90
54680;DHT22;40578;53.178;5.846;2024-03-25T11:45:44;9.30;99.90
54680;DHT22;40578;53.178;5.846;2024-03-25T11:48:14;9.30;99.90
54680;DHT22;40578;53.178;5.846;2024-03-25T11:50:40;9.30;99.90
54680;DHT22;40578;53.178;5.846;2024-03-25T11:53:05;9.30;99.90
54680;DHT22;40578;53.178;5.846;2024-03-25T11:55:31;9.40;99.90
54680;DHT22;40578;53.178;5.846;2024-03-25T11:57:57;9.40;99.90
54680;DHT22;40578;53.178;5.846;2024-03-25T12:00:24;9.50;99.90
54680;DHT22;40578;53.178;5.846;2024-03-25T12:02:50;9.60;99.90
54680;DHT22;40578;53.178;5.846;2024-03-25T12:05:16;9.80;99.90
54680;DHT22;40578;53.178;5.846;2024-03-25T12:07:42;10.00;99.90
54680;DHT22;40578;53.178;5.846;2024-03-25T12:10:08;10.10;99.90
54680;DHT22;40578;53.178;5.846;2024-03-25T12:12:53;10.10;99.90
54680;DHT22;40578;53.178;5.846;2024-03-25T12:15:18;10.10;99.90
54680;DHT22;40578;53.178;5.846;2024-03-25T12:17:44;10.20;99.90
54680;DHT22;40578;53.178;5.846;2024-03-25T12:20:10;10.10;99.90
54680;DHT22;40578;53.178;5.846;2024-03-25T12:22:37;10.10;99.90
54680;DHT22;40578;53.178;5.846;2024-03-25T12:25:04;10.10;99.90
54680;DHT22;40578;53.178;5.846;2024-03-25T12:27:32;9.90;99.90
54680;DHT22;40578;53.178;5.846;2024-03-25T12:29:59;9.90;99.90
54680;DHT22;40578;53.178;5.846;2024-03-25T12:32:37;10.20;99.90
54680;DHT22;40578;53.178;5.846;2024-03-25T12:35:07;9.70;99.90
54680;DHT22;40578;53.178;5.846;2024-03-25T12:37:33;9.60;99.90
54680;DHT22;40578;53.178;5.846;2024-03-25T12:39:58;9.60;99.90
54680;DHT22;40578;53.178;5.846;2024-03-25T12:42:25;9.70;99.90
54680;DHT22;40578;53.178;5.846;2024-03-25T12:44:53;9.70;99.90
54680;DHT22;40578;53.178;5.846;2024-03-25T12:47:18;9.80;99.90
54680;DHT22;40578;53.178;5.846;2024-03-25T12:49:44;9.90;99.90
54680;DHT22;40578;53.178;5.846;2024-03-25T12:52:09;9.90;99.90
54680;DHT22;40578;53.178;5.846;2024-03-25T12:54:35;9.90;99.90
54680;DHT22;40578;53.178;5.846;2024-03-25T12:57:01;10.00;99.90
54680;DHT22;40578;53.178;5.846;2024-03-25T12:59:27;10.10;99.90
54680;DHT22;40578;53.178;5.846;2024-03-25T13:01:53;10.10;99.90
54680;DHT22;40578;53.178;5.846;2024-03-25T13:04:19;10.10;99.90
54680;DHT22;40578;53.178;5.846;2024-03-25T13:06:44;10.20;99.90
54680;DHT22;40578;53.178;5.846;2024-03-25T13:09:11;10.30;99.90
54680;DHT22;40578;53.178;5.846;2024-03-25T13:11:37;10.40;99.90
54680;DHT22;40578;53.178;5.846;2024-03-25T13:14:03;10.40;99.90
54680;DHT22;40578;53.178;5.846;2024-03-25T13:16:32;10.40;99.90
54680;DHT22;40578;53.178;5.846;2024-03-25T13:18:58;10.50;99.90
54680;DHT22;40578;53.178;5.846;2024-03-25T13:21:24;10.50;99.90
54680;DHT22;40578;53.178;5.846;2024-03-25T13:23:51;10.50;99.90
54680;DHT22;40578;53.178;5.846;2024-03-25T13:26:17;10.50;99.90
54680;DHT22;40578;53.178;5.846;2024-03-25T13:28:42;10.60;99.90
54680;DHT22;40578;53.178;5.846;2024-03-25T13:31:08;10.30;99.90
54680;DHT22;40578;53.178;5.846;2024-03-25T13:33:34;10.20;99.90
54680;DHT22;40578;53.178;5.846;2024-03-25T13:35:59;10.30;99.90
54680;DHT22;40578;53.178;5.846;2024-03-25T13:38:25;10.30;99.90
54680;DHT22;40578;53.178;5.846;2024-03-25T13:40:52;10.50;99.90
54680;DHT22;40578;53.178;5.846;2024-03-25T13:43:18;10.80;99.90
54680;DHT22;40578;53.178;5.846;2024-03-25T13:45:48;11.00;99.90
54680;DHT22;40578;53.178;5.846;2024-03-25T13:48:15;11.70;99.90
54680;DHT22;40578;53.178;5.846;2024-03-25T13:50:41;11.30;99.90
54680;DHT22;40578;53.178;5.846;2024-03-25T13:53:08;11.30;99.90
54680;DHT22;40578;53.178;5.846;2024-03-25T13:55:34;11.50;99.90
54680;DHT22;40578;53.178;5.846;2024-03-25T13:58:00;11.70;99.90
54680;DHT22;40578;53.178;5.846;2024-03-25T14:00:25;11.80;99.90
54680;DHT22;40578;53.178;5.846;2024-03-25T14:02:54;11.90;99.90
54680;DHT22;40578;53.178;5.846;2024-03-25T14:05:20;11.80;99.90
54680;DHT22;40578;53.178;5.846;2024-03-25T14:07:46;11.80;99.90
54680;DHT22;40578;53.178;5.846;2024-03-25T14:10:12;11.80;99.90
54680;DHT22;40578;53.178;5.846;2024-03-25T14:12:38;11.80;99.90
54680;DHT22;40578;53.178;5.846;2024-03-25T14:15:04;11.80;99.90
54680;DHT22;40578;53.178;5.846;2024-03-25T14:17:30;11.70;99.90
54680;DHT22;40578;53.178;5.846;2024-03-25T14:19:56;11.70;99.90
54680;DHT22;40578;53.178;5.846;2024-03-25T14:22:22;11.60;99.90
54680;DHT22;40578;53.178;5.846;2024-03-25T14:24:48;11.60;99.90
54680;DHT22;40578;53.178;5.846;2024-03-25T14:27:14;11.30;99.90
54680;DHT22;40578;53.178;5.846;2024-03-25T14:29:40;11.30;99.90
54680;DHT22;40578;53.178;5.846;2024-03-25T14:32:07;11.40;99.90
54680;DHT22;40578;53.178;5.846;2024-03-25T14:34:33;11.50;99.90
54680;DHT22;40578;53.178;5.846;2024-03-25T14:36:59;11.70;99.90
54680;DHT22;40578;53.178;5.846;2024-03-25T14:39:27;11.90;99.90
54680;DHT22;40578;53.178;5.846;2024-03-25T14:41:52;12.00;99.90
54680;DHT22;40578;53.178;5.846;2024-03-25T14:44:18;12.00;99.90
54680;DHT22;40578;53.178;5.846;2024-03-25T14:46:43;11.90;99.90
54680;DHT22;40578;53.178;5.846;2024-03-25T14:49:09;12.10;99.90
54680;DHT22;40578;53.178;5.846;2024-03-25T14:51:35;12.10;99.90
54680;DHT22;40578;53.178;5.846;2024-03-25T14:54:01;11.50;99.90
54680;DHT22;40578;53.178;5.846;2024-03-25T14:56:28;11.30;99.90
54680;DHT22;40578;53.178;5.846;2024-03-25T14:58:54;11.20;99.90
54680;DHT22;40578;53.178;5.846;2024-03-25T15:01:20;10.90;99.90
54680;DHT22;40578;53.178;5.846;2024-03-25T15:03:46;10.70;99.90
54680;DHT22;40578;53.178;5.846;2024-03-25T15:06:12;10.70;99.90
54680;DHT22;40578;53.178;5.846;2024-03-25T15:08:37;10.70;99.90
54680;DHT22;40578;53.178;5.846;2024-03-25T15:11:05;10.90;99.90
54680;DHT22;40578;53.178;5.846;2024-03-25T15:13:31;10.20;99.90
54680;DHT22;40578;53.178;5.846;2024-03-25T15:15:57;10.20;99.90
54680;DHT22;40578;53.178;5.846;2024-03-25T15:18:23;10.20;99.90
54680;DHT22;40578;53.178;5.846;2024-03-25T15:21:00;10.10;99.90
54680;DHT22;40578;53.178;5.846;2024-03-25T15:23:25;10.20;99.90
54680;DHT22;40578;53.178;5.846;2024-03-25T15:25:51;10.20;99.90
54680;DHT22;40578;53.178;5.846;2024-03-25T15:28:16;10.30;99.90
54680;DHT22;40578;53.178;5.846;2024-03-25T15:30:42;10.30;99.90
54680;DHT22;40578;53.178;5.846;2024-03-25T15:33:08;10.40;99.90
54680;DHT22;40578;53.178;5.846;2024-03-25T15:35:33;10.50;99.90
54680;DHT22;40578;53.178;5.846;2024-03-25T15:37:59;10.60;99.90